createdAt,value
2019-04-06T00:01:35.770Z,100.00
2019-04-06T00:04:39.611Z,100.00
2019-04-06T00:07:43.442Z,100.00
2019-04-06T00:10:47.552Z,100.00
2019-04-06T00:13:51.427Z,100.00
2019-04-06T00:16:55.518Z,100.00
2019-04-06T00:20:00.378Z,100.00
2019-04-06T00:23:04.239Z,100.00
2019-04-06T00:26:08.389Z,100.00
2019-04-06T00:29:12.500Z,100.00
2019-04-06T00:32:41.722Z,100.00
2019-04-06T00:35:46.137Z,100.00
2019-04-06T00:38:50.339Z,99.95
2019-04-06T00:41:54.169Z,99.06
2019-04-06T00:44:57.987Z,98.69
2019-04-06T00:48:02.172Z,97.68
2019-04-06T00:51:06.086Z,97.77
2019-04-06T00:54:09.975Z,98.36
2019-04-06T00:57:13.788Z,97.76
2019-04-06T01:00:17.821Z,97.65
2019-04-06T01:03:22.332Z,97.75
2019-04-06T01:06:26.292Z,97.72
2019-04-06T01:09:30.152Z,97.15
2019-04-06T01:12:34.722Z,96.78
2019-04-06T01:15:38.736Z,96.90
2019-04-06T01:18:42.914Z,96.73
2019-04-06T01:21:46.798Z,96.65
2019-04-06T01:24:51.024Z,96.99
2019-04-06T01:27:55.104Z,97.08
2019-04-06T01:30:59.244Z,97.71
2019-04-06T01:34:03.745Z,97.62
2019-04-06T01:37:07.555Z,97.70
2019-04-06T01:40:11.710Z,97.62
2019-04-06T01:43:15.703Z,97.91
2019-04-06T01:46:19.914Z,98.12
2019-04-06T01:49:23.764Z,97.67
2019-04-06T01:52:28.362Z,98.07
2019-04-06T01:55:32.716Z,98.58
2019-04-06T01:58:36.908Z,98.39
2019-04-06T02:01:59.712Z,97.57
2019-04-06T02:05:04.360Z,97.81
2019-04-06T02:08:08.495Z,97.45
2019-04-06T02:11:12.405Z,96.88
2019-04-06T02:14:16.485Z,96.48
2019-04-06T02:17:21.478Z,96.75
2019-04-06T02:20:25.261Z,96.75
2019-04-06T02:23:30.849Z,97.03
2019-04-06T02:26:34.751Z,96.76
2019-04-06T02:29:38.933Z,96.87
2019-04-06T02:33:21.199Z,97.19
2019-04-06T02:36:47.231Z,96.99
2019-04-06T02:39:59.580Z,97.12
2019-04-06T02:43:10.263Z,96.89
2019-04-06T02:46:14.100Z,96.60
2019-04-06T02:49:17.993Z,97.19
2019-04-06T02:52:21.829Z,96.94
2019-04-06T02:55:26.354Z,96.96
2019-04-06T02:58:30.596Z,96.97
2019-04-06T03:01:34.546Z,96.92
2019-04-06T03:04:39.049Z,97.09
2019-04-06T03:07:43.570Z,96.85
2019-04-06T03:10:47.472Z,96.86
2019-04-06T03:13:51.701Z,96.88
2019-04-06T03:16:56.216Z,96.91
2019-04-06T03:20:00.126Z,96.70
2019-04-06T03:23:04.365Z,96.53
2019-04-06T03:26:08.705Z,96.34
2019-04-06T03:29:13.053Z,96.21
2019-04-06T03:32:17.171Z,95.89
2019-04-06T03:35:21.681Z,96.10
2019-04-06T03:38:25.666Z,96.41
2019-04-06T03:41:29.812Z,96.46
2019-04-06T03:44:34.143Z,96.41
2019-04-06T03:47:38.319Z,96.22
2019-04-06T03:50:42.533Z,96.16
2019-04-06T03:53:46.542Z,96.48
2019-04-06T03:56:50.359Z,96.51
2019-04-06T03:59:54.177Z,96.60
2019-04-06T04:02:58.100Z,96.37
2019-04-06T04:06:01.884Z,96.64
2019-04-06T04:09:07.534Z,96.55
2019-04-06T04:12:11.757Z,96.63
2019-04-06T04:15:15.708Z,96.47
2019-04-06T04:18:20.231Z,96.36
2019-04-06T04:21:24.054Z,96.15
2019-04-06T04:24:28.376Z,96.26
2019-04-06T04:27:32.293Z,96.53
2019-04-06T04:30:36.249Z,96.71
2019-04-06T04:33:40.114Z,96.10
2019-04-06T04:36:44.296Z,96.04
2019-04-06T04:39:48.149Z,95.82
2019-04-06T04:42:52.426Z,96.45
2019-04-06T04:45:56.573Z,96.14
2019-04-06T04:49:00.793Z,95.36
2019-04-06T04:52:05.010Z,96.09
2019-04-06T04:55:09.315Z,96.56
2019-04-06T04:58:13.426Z,95.49
2019-04-06T05:01:17.238Z,94.05
2019-04-06T05:04:21.087Z,94.84
2019-04-06T05:07:25.044Z,95.56
2019-04-06T05:10:28.872Z,96.27
2019-04-06T05:13:32.742Z,96.25
2019-04-06T05:16:36.758Z,96.04
2019-04-06T05:19:40.582Z,95.24
2019-04-06T05:22:44.628Z,94.54
2019-04-06T05:25:49.362Z,95.66
2019-04-06T05:28:53.295Z,96.48
2019-04-06T05:31:57.200Z,96.56
2019-04-06T05:35:01.103Z,96.62
2019-04-06T05:38:05.455Z,97.46
2019-04-06T05:41:09.777Z,97.34
2019-04-06T05:44:14.108Z,98.00
2019-04-06T05:47:18.171Z,98.81
2019-04-06T05:50:21.946Z,99.07
2019-04-06T05:53:25.875Z,98.38
2019-04-06T05:56:29.662Z,98.23
2019-04-06T05:59:33.953Z,98.99
2019-04-06T06:02:40.295Z,99.18
2019-04-06T06:05:44.054Z,99.66
2019-04-06T06:08:47.864Z,99.63
2019-04-06T06:11:51.767Z,99.47
2019-04-06T06:14:55.677Z,98.99
2019-04-06T06:17:59.870Z,98.65
2019-04-06T06:21:04.168Z,99.24
2019-04-06T06:24:09.616Z,99.90
2019-04-06T06:27:13.974Z,99.70
2019-04-06T06:30:19.146Z,99.05
2019-04-06T06:33:26.063Z,98.14
2019-04-06T06:36:30.322Z,97.76
2019-04-06T06:39:34.176Z,98.84
2019-04-06T06:42:38.361Z,98.28
2019-04-06T06:45:42.416Z,95.97
2019-04-06T06:48:46.294Z,94.43
2019-04-06T06:51:50.113Z,93.63
2019-04-06T06:54:54.002Z,91.97
2019-04-06T06:57:58.359Z,89.54
2019-04-06T07:01:03.591Z,90.28
2019-04-06T07:04:07.499Z,89.01
2019-04-06T07:07:11.411Z,87.91
2019-04-06T07:10:15.778Z,87.26
2019-04-06T07:13:20.265Z,87.15
2019-04-06T07:16:25.116Z,85.84
2019-04-06T07:19:29.362Z,85.14
2019-04-06T07:22:33.255Z,84.45
2019-04-06T07:25:37.014Z,84.59
2019-04-06T07:28:41.229Z,84.16
2019-04-06T07:31:45.396Z,84.52
2019-04-06T07:34:49.454Z,84.31
2019-04-06T07:37:53.712Z,82.78
2019-04-06T07:40:57.876Z,82.04
2019-04-06T07:44:02.171Z,81.98
2019-04-06T07:47:06.163Z,81.54
2019-04-06T07:50:10.701Z,79.92
2019-04-06T07:53:14.602Z,79.92
2019-04-06T07:56:22.623Z,77.69
2019-04-06T07:59:26.558Z,76.86
2019-04-06T08:02:30.654Z,75.54
2019-04-06T08:05:34.779Z,75.85
2019-04-06T08:08:38.915Z,75.18
2019-04-06T08:11:42.835Z,76.20
2019-04-06T08:14:46.859Z,75.58
2019-04-06T08:17:50.917Z,74.43
2019-04-06T08:20:55.162Z,74.65
2019-04-06T08:23:59.003Z,74.48
2019-04-06T08:27:02.871Z,71.75
2019-04-06T08:30:08.040Z,73.16
2019-04-06T08:33:12.350Z,71.04
2019-04-06T08:36:16.280Z,71.85
2019-04-06T08:39:20.295Z,71.56
2019-04-06T08:42:24.182Z,72.11
2019-04-06T08:45:28.529Z,70.41
2019-04-06T08:48:32.577Z,70.22
2019-04-06T08:51:36.607Z,70.33
2019-04-06T08:54:41.599Z,70.76
2019-04-06T08:57:45.517Z,69.59
2019-04-06T09:00:49.385Z,70.81
2019-04-06T09:03:53.541Z,69.24
2019-04-06T09:06:57.602Z,69.75
2019-04-06T09:10:02.106Z,69.35
2019-04-06T09:13:06.359Z,69.42
2019-04-06T09:16:10.341Z,69.20
2019-04-06T09:19:14.245Z,68.78
2019-04-06T09:22:18.341Z,67.46
2019-04-06T09:25:22.264Z,66.21
2019-04-06T09:28:26.201Z,66.12
2019-04-06T09:31:30.638Z,64.72
2019-04-06T09:34:36.452Z,65.55
2019-04-06T09:37:40.362Z,63.28
2019-04-06T09:40:44.491Z,64.29
2019-04-06T09:43:48.673Z,63.20
2019-04-06T09:47:01.003Z,64.00
2019-04-06T09:50:20.712Z,61.82
2019-04-06T09:54:05.055Z,61.14
2019-04-06T09:57:20.125Z,59.20
2019-04-06T10:00:39.738Z,60.90
2019-04-06T10:04:00.736Z,59.90
2019-04-06T10:07:15.594Z,59.72
2019-04-06T10:10:42.798Z,60.63
2019-04-06T10:13:53.632Z,60.02
2019-04-06T10:17:20.180Z,57.70
2019-04-06T10:20:36.814Z,58.97
2019-04-06T10:24:02.225Z,58.02
2019-04-06T10:27:25.375Z,57.45
2019-04-06T10:30:47.366Z,58.38
2019-04-06T10:34:07.786Z,57.66
2019-04-06T10:37:19.152Z,56.57
2019-04-06T10:40:39.030Z,57.12
2019-04-06T10:43:52.863Z,56.06
2019-04-06T10:47:15.201Z,56.91
2019-04-06T10:50:41.347Z,57.10
2019-04-06T10:54:01.409Z,55.28
2019-04-06T10:57:22.764Z,55.46
2019-04-06T11:00:35.946Z,54.43
2019-04-06T11:03:59.082Z,55.37
2019-04-06T11:07:20.457Z,55.37
2019-04-06T11:10:46.704Z,54.40
2019-04-06T11:14:08.101Z,55.55
2019-04-06T11:17:32.707Z,55.55
2019-04-06T11:21:11.101Z,55.02
2019-04-06T11:24:32.781Z,55.96
2019-04-06T11:27:54.877Z,54.38
2019-04-06T11:31:11.083Z,54.77
2019-04-06T11:34:31.220Z,54.77
2019-04-06T11:37:54.351Z,54.79
2019-04-06T11:41:11.487Z,56.14
2019-04-06T11:44:21.468Z,55.65
2019-04-06T11:47:57.233Z,54.43
2019-04-06T11:51:19.099Z,54.43
2019-04-06T11:54:42.314Z,54.49
2019-04-06T11:57:55.302Z,54.65
2019-04-06T12:01:09.222Z,52.37
2019-04-06T12:04:31.499Z,52.37
2019-04-06T12:07:53.392Z,53.64
2019-04-06T12:11:19.848Z,53.61
2019-04-06T12:14:49.024Z,52.27
2019-04-06T12:18:10.241Z,51.12
2019-04-06T12:21:26.246Z,51.53
2019-04-06T12:24:51.041Z,53.04
2019-04-06T12:28:21.272Z,52.94
2019-04-06T12:31:31.698Z,54.51
2019-04-06T12:34:53.907Z,54.62
2019-04-06T12:38:16.843Z,55.11
2019-04-06T12:41:28.149Z,55.80
2019-04-06T12:45:00.729Z,55.93
2019-04-06T12:48:29.651Z,57.03
2019-04-06T12:51:56.228Z,57.03
2019-04-06T12:55:22.717Z,55.80
2019-04-06T12:58:52.716Z,55.74
2019-04-06T13:02:20.313Z,54.76
2019-04-06T13:05:49.061Z,54.76
2019-04-06T13:09:09.897Z,55.19
2019-04-06T13:12:31.580Z,55.19
2019-04-06T13:15:44.214Z,56.45
2019-04-06T13:19:19.498Z,57.03
2019-04-06T13:22:42.817Z,57.03
2019-04-06T13:25:58.576Z,57.75
2019-04-06T13:29:20.873Z,57.46
2019-04-06T13:32:47.724Z,57.61
2019-04-06T13:36:01.312Z,58.45
2019-04-06T13:39:29.717Z,57.86
2019-04-06T13:42:45.037Z,57.20
2019-04-06T13:46:11.244Z,57.70
2019-04-06T13:49:43.315Z,57.59
2019-04-06T13:53:01.493Z,57.59
2019-04-06T13:56:16.593Z,58.34
2019-04-06T13:59:28.450Z,58.31
2019-04-06T14:02:41.727Z,56.97
2019-04-06T14:06:10.743Z,55.88
2019-04-06T14:09:23.035Z,54.99
2019-04-06T14:12:51.784Z,52.09
2019-04-06T14:16:11.032Z,51.83
2019-04-06T14:19:33.240Z,49.75
2019-04-06T14:22:55.087Z,48.99
2019-04-06T14:26:20.222Z,49.53
2019-04-06T14:29:59.102Z,48.34
2019-04-06T14:33:22.322Z,48.55
2019-04-06T14:36:34.560Z,47.17
2019-04-06T14:39:58.442Z,48.18
2019-04-06T14:43:21.029Z,46.58
2019-04-06T14:46:52.972Z,47.73
2019-04-06T14:50:09.077Z,48.15
2019-04-06T14:53:32.961Z,48.26
2019-04-06T14:56:52.231Z,47.25
2019-04-06T15:00:09.746Z,47.52
2019-04-06T15:03:34.932Z,48.46
2019-04-06T15:07:16.008Z,49.38
2019-04-06T15:10:26.722Z,48.32
2019-04-06T15:14:02.453Z,48.77
2019-04-06T15:17:14.905Z,47.71
2019-04-06T15:20:41.997Z,48.85
2019-04-06T15:23:53.027Z,49.93
2019-04-06T15:27:31.008Z,48.91
2019-04-06T15:31:12.895Z,49.31
2019-04-06T15:34:29.416Z,49.02
2019-04-06T15:37:52.625Z,48.53
2019-04-06T15:41:12.188Z,49.90
2019-04-06T15:44:35.804Z,49.21
2019-04-06T15:47:49.757Z,50.24
2019-04-06T15:51:21.520Z,50.84
2019-04-06T15:54:43.494Z,51.21
2019-04-06T15:57:52.237Z,50.25
2019-04-06T16:01:15.139Z,50.39
2019-04-06T16:04:35.038Z,50.56
2019-04-06T16:08:13.811Z,51.19
2019-04-06T16:11:49.338Z,50.49
2019-04-06T16:15:18.126Z,50.06
2019-04-06T16:18:40.190Z,50.08
2019-04-06T16:21:55.206Z,50.06
2019-04-06T16:25:03.567Z,50.98
2019-04-06T16:28:15.723Z,50.90
2019-04-06T16:31:37.795Z,52.24
2019-04-06T16:34:50.642Z,52.97
2019-04-06T16:38:23.610Z,53.01
2019-04-06T16:41:46.785Z,52.70
2019-04-06T16:45:01.825Z,53.71
2019-04-06T16:48:19.134Z,54.06
2019-04-06T16:51:57.661Z,54.23
2019-04-06T16:55:20.880Z,54.59
2019-04-06T16:58:39.847Z,55.15
2019-04-06T17:02:04.208Z,55.00
2019-04-06T17:05:17.883Z,56.08
2019-04-06T17:08:40.361Z,56.20
2019-04-06T17:11:54.386Z,56.87
2019-04-06T17:15:05.353Z,56.42
2019-04-06T17:18:21.793Z,56.42
2019-04-06T17:21:47.847Z,57.98
2019-04-06T17:25:09.771Z,57.98
2019-04-06T17:28:35.375Z,57.96
2019-04-06T17:31:49.155Z,59.20
2019-04-06T17:35:02.983Z,59.67
2019-04-06T17:38:26.062Z,59.92
2019-04-06T17:41:49.270Z,60.17
2019-04-06T17:45:31.408Z,60.29
2019-04-06T17:49:01.151Z,61.46
2019-04-06T17:52:15.024Z,61.46
2019-04-06T17:55:47.094Z,62.15
2019-04-06T17:59:07.414Z,62.39
2019-04-06T18:02:47.003Z,62.62
2019-04-06T18:06:20.208Z,62.72
2019-04-06T18:09:36.377Z,63.18
2019-04-06T18:12:48.804Z,63.86
2019-04-06T18:15:53.096Z,64.29
2019-04-06T18:18:57.063Z,65.05
2019-04-06T18:22:02.160Z,65.96
2019-04-06T18:25:07.439Z,66.09
2019-04-06T18:28:11.652Z,66.43
2019-04-06T18:31:34.888Z,67.34
2019-04-06T18:34:38.809Z,67.58
2019-04-06T18:38:01.918Z,67.03
2019-04-06T18:41:05.861Z,67.62
2019-04-06T18:44:09.826Z,68.04
2019-04-06T18:47:13.763Z,68.21
2019-04-06T18:50:18.428Z,69.05
2019-04-06T18:53:22.980Z,69.13
2019-04-06T18:56:26.867Z,69.09
2019-04-06T18:59:31.317Z,69.42
2019-04-06T19:02:36.007Z,69.13
2019-04-06T19:05:39.897Z,69.69
2019-04-06T19:08:43.746Z,70.31
2019-04-06T19:11:54.381Z,70.68
2019-04-06T19:14:55.782Z,71.01
2019-04-06T19:17:59.979Z,71.32
2019-04-06T19:21:03.984Z,72.27
2019-04-06T19:24:08.143Z,72.65
2019-04-06T19:27:12.535Z,72.79
2019-04-06T19:30:17.393Z,72.62
2019-04-06T19:33:24.963Z,72.90
2019-04-06T19:36:27.442Z,73.73
2019-04-06T19:39:31.848Z,73.73
2019-04-06T19:42:36.416Z,73.42
2019-04-06T19:45:40.909Z,73.25
2019-04-06T19:48:45.873Z,73.74
2019-04-06T19:51:50.180Z,73.84
2019-04-06T19:54:54.255Z,73.11
2019-04-06T19:57:58.139Z,73.19
2019-04-06T20:01:02.079Z,73.83
2019-04-06T20:04:05.928Z,74.10
2019-04-06T20:07:11.007Z,74.64
2019-04-06T20:10:16.151Z,74.98
2019-04-06T20:13:20.432Z,75.44
2019-04-06T20:16:25.285Z,75.49
2019-04-06T20:19:30.108Z,75.15
2019-04-06T20:22:34.132Z,75.28
2019-04-06T20:25:38.352Z,74.88
2019-04-06T20:28:42.541Z,74.92
2019-04-06T20:31:46.505Z,74.35
2019-04-06T20:34:50.479Z,75.95
2019-04-06T20:37:54.443Z,75.58
2019-04-06T20:40:58.260Z,74.97
2019-04-06T20:44:02.444Z,76.15
2019-04-06T20:47:06.853Z,76.81
2019-04-06T20:50:11.963Z,77.00
2019-04-06T20:53:16.969Z,77.13
2019-04-06T20:56:21.138Z,76.58
2019-04-06T20:59:25.422Z,76.28
2019-04-06T21:02:29.265Z,76.64
2019-04-06T21:05:33.397Z,76.97
2019-04-06T21:08:37.472Z,77.33
2019-04-06T21:11:41.440Z,77.97
2019-04-06T21:14:45.480Z,78.18
2019-04-06T21:17:49.420Z,77.70
2019-04-06T21:20:53.487Z,78.59
2019-04-06T21:23:57.546Z,78.61
2019-04-06T21:27:02.197Z,79.00
2019-04-06T21:30:07.100Z,79.10
2019-04-06T21:33:11.081Z,79.31
2019-04-06T21:36:15.239Z,79.43
2019-04-06T21:39:19.145Z,80.25
2019-04-06T21:42:23.083Z,80.84
2019-04-06T21:45:27.100Z,81.07
2019-04-06T21:48:31.359Z,81.56
2019-04-06T21:51:35.893Z,81.96
2019-04-06T21:54:39.802Z,81.68
2019-04-06T21:57:43.965Z,82.18
2019-04-06T22:00:56.709Z,82.41
2019-04-06T22:04:01.159Z,82.34
2019-04-06T22:07:06.405Z,82.88
2019-04-06T22:10:10.595Z,83.28
2019-04-06T22:13:14.862Z,82.67
2019-04-06T22:16:18.817Z,83.38
2019-04-06T22:19:22.692Z,83.31
2019-04-06T22:22:26.976Z,83.55
2019-04-06T22:25:31.231Z,84.75
2019-04-06T22:28:35.180Z,85.10
2019-04-06T22:31:39.111Z,85.55
2019-04-06T22:34:43.275Z,84.71
2019-04-06T22:37:47.762Z,85.51
2019-04-06T22:40:52.010Z,85.11
2019-04-06T22:43:56.274Z,85.22
2019-04-06T22:47:00.129Z,84.75
2019-04-06T22:50:04.459Z,85.55
2019-04-06T22:53:08.743Z,86.10
2019-04-06T22:56:13.412Z,86.16
2019-04-06T22:59:17.777Z,85.77
2019-04-06T23:02:22.604Z,87.47
2019-04-06T23:05:31.260Z,86.31
2019-04-06T23:08:35.482Z,87.19
2019-04-06T23:11:39.984Z,87.53
2019-04-06T23:14:44.333Z,88.13
2019-04-06T23:17:48.898Z,87.35
2019-04-06T23:20:52.954Z,86.31
2019-04-06T23:23:57.878Z,87.26
2019-04-06T23:27:02.402Z,85.68
2019-04-06T23:30:07.606Z,87.08
2019-04-06T23:33:12.015Z,87.01
2019-04-06T23:36:15.843Z,87.00
2019-04-06T23:39:19.739Z,86.62
2019-04-06T23:42:23.961Z,86.55
2019-04-06T23:45:28.816Z,86.39
2019-04-06T23:48:32.775Z,85.34
2019-04-06T23:51:37.136Z,86.64
2019-04-06T23:54:41.729Z,87.77
2019-04-06T23:57:45.728Z,89.26
